createdAt,value
2023-04-30T00:00:01.680Z,4.60
2023-04-30T00:02:29.371Z,4.70
2023-04-30T00:04:56.818Z,5.20
2023-04-30T00:07:24.195Z,4.70
2023-04-30T00:09:51.812Z,5.00
2023-04-30T00:12:19.237Z,4.70
2023-04-30T00:14:46.715Z,4.40
2023-04-30T00:17:14.029Z,4.80
2023-04-30T00:19:41.462Z,4.90
2023-04-30T00:22:09.264Z,4.80
2023-04-30T00:24:36.743Z,4.90
2023-04-30T00:27:04.300Z,5.30
2023-04-30T00:29:31.734Z,5.10
2023-04-30T00:31:59.258Z,5.30
2023-04-30T00:34:26.596Z,5.50
2023-04-30T00:36:53.940Z,5.90
2023-04-30T00:39:21.371Z,5.60
2023-04-30T00:41:48.748Z,5.60
2023-04-30T00:44:16.193Z,5.80
2023-04-30T00:46:43.661Z,5.50
2023-04-30T00:49:11.053Z,5.50
2023-04-30T00:51:42.165Z,5.60
2023-04-30T00:54:09.994Z,5.70
2023-04-30T00:56:37.538Z,5.60
2023-04-30T00:59:04.855Z,5.70
2023-04-30T01:01:33.180Z,5.90
2023-04-30T01:04:01.168Z,5.60
2023-04-30T01:06:28.855Z,5.60
2023-04-30T01:08:57.790Z,5.90
2023-04-30T01:12:16.117Z,5.80
2023-04-30T01:15:10.217Z,5.70
2023-04-30T01:17:59.687Z,5.80
2023-04-30T01:20:29.653Z,5.80
2023-04-30T01:23:25.796Z,5.80
2023-04-30T01:26:41.410Z,5.90
2023-04-30T01:29:10.677Z,6.00
2023-04-30T01:31:38.213Z,6.00
2023-04-30T01:34:05.801Z,6.00
2023-04-30T01:37:06.189Z,6.00
2023-04-30T01:40:00.825Z,6.00
2023-04-30T01:42:36.644Z,5.90
2023-04-30T01:45:33.139Z,6.00
2023-04-30T01:48:25.617Z,6.00
2023-04-30T01:51:05.972Z,6.10
2023-04-30T01:53:42.384Z,6.10
2023-04-30T01:56:32.919Z,6.10
2023-04-30T01:59:01.756Z,6.30
2023-04-30T02:01:30.911Z,6.20
2023-04-30T02:03:59.168Z,6.20
2023-04-30T02:06:30.984Z,6.20
2023-04-30T02:09:06.421Z,6.30
2023-04-30T02:11:33.804Z,6.20
2023-04-30T02:14:01.125Z,6.30
2023-04-30T02:16:28.923Z,6.30
2023-04-30T02:18:56.387Z,6.60
2023-04-30T02:21:23.816Z,6.30
2023-04-30T02:23:51.164Z,6.30
2023-04-30T02:26:18.478Z,6.20
2023-04-30T02:28:46.021Z,6.30
2023-04-30T02:31:13.495Z,6.30
2023-04-30T02:33:40.861Z,6.30
2023-04-30T02:36:08.203Z,6.40
2023-04-30T02:38:35.790Z,6.40
2023-04-30T02:41:03.726Z,6.50
2023-04-30T02:43:31.066Z,6.50
2023-04-30T02:45:58.536Z,6.50
2023-04-30T02:48:26.035Z,6.60
2023-04-30T02:50:53.283Z,5.80
2023-04-30T02:53:20.615Z,6.50
2023-04-30T02:55:48.018Z,6.40
2023-04-30T02:58:15.528Z,6.60
2023-04-30T03:00:42.864Z,6.30
2023-04-30T03:03:10.424Z,6.30
2023-04-30T03:05:37.885Z,6.10
2023-04-30T03:08:05.592Z,6.30
2023-04-30T03:10:33.058Z,6.40
2023-04-30T03:13:00.388Z,6.40
2023-04-30T03:15:27.723Z,6.60
2023-04-30T03:17:55.112Z,6.50
2023-04-30T03:20:22.602Z,6.50
2023-04-30T03:22:50.103Z,6.50
2023-04-30T03:25:17.596Z,6.50
2023-04-30T03:27:48.108Z,6.60
2023-04-30T03:30:15.727Z,6.40
2023-04-30T03:32:43.143Z,6.40
2023-04-30T03:35:11.161Z,6.40
2023-04-30T03:37:38.592Z,6.40
2023-04-30T03:40:06.984Z,6.40
2023-04-30T03:42:34.422Z,6.40
2023-04-30T03:45:01.703Z,6.40
2023-04-30T03:47:29.115Z,6.40
2023-04-30T03:49:56.870Z,6.50
2023-04-30T03:52:24.569Z,6.60
2023-04-30T03:54:51.966Z,6.50
2023-04-30T03:57:19.685Z,6.60
2023-04-30T03:59:47.375Z,6.70
2023-04-30T04:02:15.008Z,6.70
2023-04-30T04:04:42.859Z,6.70
2023-04-30T04:07:11.591Z,6.70
2023-04-30T04:09:39.355Z,6.70
2023-04-30T04:12:06.892Z,6.70
2023-04-30T04:14:34.434Z,6.70
2023-04-30T04:17:02.410Z,6.70
2023-04-30T04:19:29.815Z,6.80
2023-04-30T04:21:57.712Z,6.80
2023-04-30T04:24:26.312Z,7.00
2023-04-30T04:26:54.069Z,6.70
2023-04-30T04:29:21.985Z,6.80
2023-04-30T04:31:51.345Z,6.70
2023-04-30T04:34:20.175Z,6.70
2023-04-30T04:36:47.919Z,6.80
2023-04-30T04:39:15.462Z,6.90
2023-04-30T04:41:43.162Z,6.90
2023-04-30T04:44:11.080Z,6.80
2023-04-30T04:46:38.809Z,6.60
2023-04-30T04:49:06.747Z,6.60
2023-04-30T04:51:34.196Z,6.30
2023-04-30T04:54:01.610Z,6.80
2023-04-30T04:56:29.102Z,6.50
2023-04-30T04:58:57.188Z,6.80
2023-04-30T05:01:24.953Z,6.70
2023-04-30T05:03:53.805Z,6.60
2023-04-30T05:06:21.385Z,6.70
2023-04-30T05:08:48.750Z,6.70
2023-04-30T05:11:16.904Z,6.70
2023-04-30T05:13:44.262Z,6.80
2023-04-30T05:16:11.726Z,6.70
2023-04-30T05:18:39.268Z,6.90
2023-04-30T05:21:06.648Z,6.70
2023-04-30T05:23:34.047Z,6.60
2023-04-30T05:26:01.387Z,6.60
2023-04-30T05:28:28.731Z,6.60
2023-04-30T05:30:56.364Z,6.60
2023-04-30T05:33:23.830Z,6.70
2023-04-30T05:35:51.326Z,6.60
2023-04-30T05:38:18.805Z,6.60
2023-04-30T05:40:46.416Z,6.50
2023-04-30T05:43:13.902Z,6.60
2023-04-30T05:45:41.333Z,6.40
2023-04-30T05:48:08.920Z,6.50
2023-04-30T05:50:36.589Z,6.40
2023-04-30T05:53:04.024Z,6.40
2023-04-30T05:55:31.687Z,6.60
2023-04-30T05:57:59.052Z,6.50
2023-04-30T06:00:26.531Z,6.70
2023-04-30T06:02:54.169Z,6.50
2023-04-30T06:05:22.011Z,6.60
2023-04-30T06:07:49.420Z,6.60
2023-04-30T06:10:17.059Z,6.60
2023-04-30T06:12:44.616Z,6.90
2023-04-30T06:15:12.045Z,6.50
2023-04-30T06:17:39.492Z,6.40
2023-04-30T06:20:07.781Z,6.40
2023-04-30T06:22:35.488Z,6.40
2023-04-30T06:25:03.631Z,6.50
2023-04-30T06:27:32.563Z,6.50
2023-04-30T06:30:01.173Z,6.40
2023-04-30T06:32:28.808Z,6.40
2023-04-30T06:34:56.479Z,6.60
2023-04-30T06:37:24.084Z,6.50
2023-04-30T06:39:51.865Z,6.50
2023-04-30T06:42:19.404Z,6.40
2023-04-30T06:44:47.416Z,6.60
2023-04-30T06:47:15.234Z,6.30
2023-04-30T06:49:42.680Z,6.40
2023-04-30T06:52:10.154Z,6.40
2023-04-30T06:54:37.539Z,6.20
2023-04-30T06:57:04.875Z,6.40
2023-04-30T06:59:32.837Z,6.30
2023-04-30T07:02:00.554Z,6.20
2023-04-30T07:04:28.452Z,6.20
2023-04-30T07:06:55.942Z,6.30
2023-04-30T07:09:23.314Z,6.40
2023-04-30T07:11:51.500Z,6.20
2023-04-30T07:14:18.808Z,6.20
2023-04-30T07:16:46.155Z,6.10
2023-04-30T07:19:13.629Z,5.90
2023-04-30T07:21:40.921Z,6.00
2023-04-30T07:24:08.636Z,6.10
2023-04-30T07:26:36.610Z,6.20
2023-04-30T07:29:04.426Z,6.00
2023-04-30T07:31:33.600Z,6.20
2023-04-30T07:34:00.998Z,6.30
2023-04-30T07:36:28.419Z,6.30
2023-04-30T07:38:56.154Z,6.20
2023-04-30T07:41:26.381Z,6.20
2023-04-30T07:43:53.860Z,6.30
2023-04-30T07:46:21.387Z,5.90
2023-04-30T07:48:48.738Z,5.90
2023-04-30T07:51:16.046Z,5.80
2023-04-30T07:53:43.531Z,6.00
2023-04-30T07:56:10.884Z,6.10
2023-04-30T07:58:38.222Z,6.20
2023-04-30T08:01:05.639Z,6.20
2023-04-30T08:03:33.055Z,6.30
2023-04-30T08:06:00.710Z,6.30
2023-04-30T08:08:28.194Z,6.20
2023-04-30T08:10:55.773Z,6.40
2023-04-30T08:13:23.249Z,6.40
2023-04-30T08:15:50.943Z,6.50
2023-04-30T08:18:18.365Z,6.80
2023-04-30T08:20:45.874Z,6.90
2023-04-30T08:23:13.338Z,6.80
2023-04-30T08:25:40.924Z,6.50
2023-04-30T08:28:08.309Z,6.40
2023-04-30T08:30:35.636Z,7.00
2023-04-30T08:33:03.143Z,6.50
2023-04-30T08:35:30.559Z,6.30
2023-04-30T08:37:58.401Z,6.50
2023-04-30T08:40:43.490Z,6.60
2023-04-30T08:43:15.726Z,6.60
2023-04-30T08:45:43.325Z,6.60
2023-04-30T08:48:16.449Z,6.60
2023-04-30T08:50:44.159Z,6.60
2023-04-30T08:53:12.764Z,6.50
2023-04-30T08:55:41.052Z,6.20
2023-04-30T08:58:10.698Z,6.10
2023-04-30T09:00:39.947Z,6.10
2023-04-30T09:03:08.530Z,6.10
2023-04-30T09:05:37.676Z,6.20
2023-04-30T09:08:06.942Z,6.20
2023-04-30T09:10:35.352Z,6.30
2023-04-30T09:13:04.344Z,6.40
2023-04-30T09:15:32.605Z,6.30
2023-04-30T09:18:18.334Z,6.70
2023-04-30T09:20:58.398Z,6.30
2023-04-30T09:23:26.047Z,6.10
2023-04-30T09:25:53.912Z,6.00
2023-04-30T09:28:25.633Z,5.90
2023-04-30T09:30:54.376Z,5.90
2023-04-30T09:33:21.848Z,5.90
2023-04-30T09:35:49.608Z,5.80
2023-04-30T09:38:31.497Z,5.80
2023-04-30T09:41:01.055Z,5.90
2023-04-30T09:43:29.474Z,5.80
2023-04-30T09:45:58.988Z,5.80
2023-04-30T09:48:29.999Z,6.20
2023-04-30T09:50:57.897Z,5.70
2023-04-30T09:53:25.329Z,5.70
2023-04-30T09:55:52.885Z,5.70
2023-04-30T09:58:20.501Z,5.80
2023-04-30T10:00:50.977Z,5.80
2023-04-30T10:03:20.568Z,5.90
2023-04-30T10:05:51.283Z,6.00
2023-04-30T10:08:28.683Z,5.80
2023-04-30T10:11:07.322Z,5.80
2023-04-30T10:13:51.785Z,5.80
2023-04-30T10:16:53.818Z,5.80
2023-04-30T10:19:25.878Z,5.80
2023-04-30T10:21:53.552Z,5.90
2023-04-30T10:24:21.460Z,6.00
2023-04-30T10:26:49.913Z,6.10
2023-04-30T10:29:18.567Z,6.20
2023-04-30T10:31:52.808Z,6.10
2023-04-30T10:34:41.650Z,6.10
2023-04-30T10:37:22.374Z,6.00
2023-04-30T10:39:51.351Z,5.90
2023-04-30T10:42:18.942Z,6.00
2023-04-30T10:44:46.635Z,6.10
2023-04-30T10:47:14.066Z,6.30
2023-04-30T10:49:48.265Z,6.30
2023-04-30T10:52:27.833Z,6.50
2023-04-30T10:54:55.621Z,6.20
2023-04-30T10:57:23.066Z,6.20
2023-04-30T11:00:09.551Z,6.60
2023-04-30T11:02:45.462Z,6.00
2023-04-30T11:05:14.915Z,6.00
2023-04-30T11:08:02.670Z,5.90
2023-04-30T11:10:34.625Z,5.90
2023-04-30T11:13:07.011Z,6.00
2023-04-30T11:15:45.701Z,6.00
2023-04-30T11:18:15.020Z,6.10
2023-04-30T11:20:49.200Z,5.90
2023-04-30T11:23:28.164Z,5.90
2023-04-30T11:26:07.989Z,5.50
2023-04-30T11:28:37.989Z,6.00
2023-04-30T11:31:06.096Z,6.10
2023-04-30T11:33:34.765Z,6.40
2023-04-30T11:36:02.795Z,6.00
2023-04-30T11:38:34.853Z,6.40
2023-04-30T11:41:06.854Z,6.20
2023-04-30T11:43:35.308Z,6.10
2023-04-30T11:46:07.450Z,6.30
2023-04-30T11:48:37.685Z,6.30
2023-04-30T11:51:14.136Z,6.50
2023-04-30T11:53:42.160Z,6.50
2023-04-30T11:56:09.672Z,6.60
2023-04-30T11:58:40.547Z,6.60
2023-04-30T12:01:12.163Z,6.80
2023-04-30T12:03:46.892Z,6.70
2023-04-30T12:06:28.342Z,6.80
2023-04-30T12:08:58.073Z,6.70
2023-04-30T12:11:27.992Z,6.70
2023-04-30T12:14:13.053Z,6.60
2023-04-30T12:16:50.446Z,6.60
2023-04-30T12:19:25.288Z,6.70
2023-04-30T12:21:55.228Z,6.60
2023-04-30T12:24:23.865Z,6.80
2023-04-30T12:26:54.192Z,6.70
2023-04-30T12:29:22.898Z,6.80
2023-04-30T12:31:52.382Z,6.70
2023-04-30T12:34:19.873Z,6.70
2023-04-30T12:36:47.423Z,6.70
2023-04-30T12:39:17.443Z,7.20
2023-04-30T12:41:49.823Z,7.00
2023-04-30T12:44:25.519Z,6.80
2023-04-30T12:46:57.668Z,6.90
2023-04-30T12:49:29.532Z,7.10
2023-04-30T12:52:02.884Z,7.00
2023-04-30T12:54:32.838Z,7.00
2023-04-30T12:57:10.236Z,6.90
2023-04-30T12:59:54.208Z,6.80
2023-04-30T13:02:25.182Z,6.90
2023-04-30T13:04:53.371Z,6.70
2023-04-30T13:07:21.182Z,6.80
2023-04-30T13:09:48.761Z,6.70
2023-04-30T13:12:16.119Z,6.70
2023-04-30T13:14:43.613Z,6.80
2023-04-30T13:17:14.139Z,6.90
2023-04-30T13:19:41.937Z,6.90
2023-04-30T13:22:09.409Z,6.80
2023-04-30T13:24:37.603Z,6.70
2023-04-30T13:27:05.232Z,6.80
2023-04-30T13:29:33.002Z,7.00
2023-04-30T13:32:00.470Z,6.90
2023-04-30T13:34:27.911Z,7.00
2023-04-30T13:36:55.292Z,6.90
2023-04-30T13:39:22.723Z,6.90
2023-04-30T13:41:50.960Z,6.80
2023-04-30T13:44:18.850Z,6.90
2023-04-30T13:46:46.229Z,6.40
2023-04-30T13:49:13.636Z,6.30
2023-04-30T13:51:41.472Z,6.00
2023-04-30T13:54:08.984Z,6.00
2023-04-30T13:56:36.427Z,6.10
2023-04-30T13:59:04.572Z,6.40
2023-04-30T14:01:33.134Z,6.60
2023-04-30T14:04:00.631Z,6.70
2023-04-30T14:06:29.711Z,6.70
2023-04-30T14:08:57.426Z,6.70
2023-04-30T14:11:25.013Z,6.70
2023-04-30T14:13:52.692Z,6.60
2023-04-30T14:16:21.230Z,6.60
2023-04-30T14:18:48.591Z,6.60
2023-04-30T14:21:16.082Z,6.40
2023-04-30T14:23:46.712Z,6.30
2023-04-30T14:26:14.902Z,6.30
2023-04-30T14:28:42.342Z,6.10
2023-04-30T14:31:10.753Z,6.40
2023-04-30T14:33:38.222Z,5.70
2023-04-30T14:36:07.994Z,6.30
2023-04-30T14:38:35.498Z,6.30
2023-04-30T14:41:03.015Z,6.20
2023-04-30T14:43:30.495Z,6.30
2023-04-30T14:45:58.388Z,6.50
2023-04-30T14:48:26.100Z,6.10
2023-04-30T14:50:53.387Z,6.10
2023-04-30T14:53:20.863Z,6.40
2023-04-30T14:55:48.336Z,6.20
2023-04-30T14:58:15.669Z,6.30
2023-04-30T15:00:43.096Z,6.20
2023-04-30T15:03:10.561Z,6.40
2023-04-30T15:05:38.092Z,5.90
2023-04-30T15:08:06.819Z,6.30
2023-04-30T15:10:34.295Z,6.00
2023-04-30T15:13:04.204Z,5.90
2023-04-30T15:15:31.966Z,5.80
2023-04-30T15:18:00.788Z,5.80
2023-04-30T15:20:28.531Z,5.80
2023-04-30T15:22:56.006Z,6.00
2023-04-30T15:25:26.558Z,5.70
2023-04-30T15:27:55.031Z,5.70
2023-04-30T15:30:22.776Z,6.20
2023-04-30T15:32:50.678Z,5.80
2023-04-30T15:35:18.166Z,5.80
2023-04-30T15:37:48.614Z,5.80
2023-04-30T15:40:16.232Z,5.80
2023-04-30T15:42:44.355Z,6.00
2023-04-30T15:45:12.004Z,6.30
2023-04-30T15:47:39.661Z,6.20
2023-04-30T15:50:08.172Z,5.90
2023-04-30T15:52:37.068Z,5.90
2023-04-30T15:55:07.256Z,5.80
2023-04-30T15:57:34.558Z,5.80
2023-04-30T16:00:02.007Z,5.80
2023-04-30T16:02:30.300Z,5.80
2023-04-30T16:04:57.651Z,6.40
2023-04-30T16:07:25.136Z,6.00
2023-04-30T16:09:53.219Z,6.10
2023-04-30T16:12:20.929Z,6.20
2023-04-30T16:14:48.431Z,6.30
2023-04-30T16:17:16.526Z,6.30
2023-04-30T16:19:43.936Z,5.80
2023-04-30T16:22:12.066Z,5.70
2023-04-30T16:24:39.620Z,5.70
2023-04-30T16:27:08.556Z,6.40
2023-04-30T16:29:35.994Z,5.90
2023-04-30T16:32:03.580Z,6.30
2023-04-30T16:34:31.112Z,6.20
2023-04-30T16:36:58.429Z,6.20
2023-04-30T16:39:25.776Z,6.10
2023-04-30T16:41:53.125Z,6.00
2023-04-30T16:44:21.220Z,6.10
2023-04-30T16:46:49.338Z,6.20
2023-04-30T16:49:16.986Z,6.20
2023-04-30T16:51:44.479Z,6.20
2023-04-30T16:54:11.970Z,6.30
2023-04-30T16:56:39.421Z,6.40
2023-04-30T16:59:06.953Z,6.50
2023-04-30T17:01:34.733Z,6.40
2023-04-30T17:04:02.251Z,6.40
2023-04-30T17:06:30.515Z,6.40
2023-04-30T17:08:58.363Z,6.40
2023-04-30T17:11:25.730Z,6.40
2023-04-30T17:13:54.634Z,6.30
2023-04-30T17:16:22.521Z,6.20
2023-04-30T17:18:50.050Z,6.30
2023-04-30T17:21:17.455Z,6.20
2023-04-30T17:23:44.955Z,6.30
2023-04-30T17:26:12.348Z,6.30
2023-04-30T17:28:39.866Z,6.40
2023-04-30T17:31:09.520Z,6.30
2023-04-30T17:33:36.993Z,6.30
2023-04-30T17:36:04.799Z,6.20
2023-04-30T17:38:32.692Z,6.30
2023-04-30T17:41:00.200Z,6.30
2023-04-30T17:43:27.791Z,6.30
2023-04-30T17:45:56.446Z,6.20
2023-04-30T17:48:23.995Z,6.20
2023-04-30T17:50:51.534Z,6.30
2023-04-30T17:53:19.103Z,6.20
2023-04-30T17:55:46.531Z,6.20
2023-04-30T17:58:14.174Z,6.20
2023-04-30T18:00:45.012Z,6.20
2023-04-30T18:03:13.262Z,6.30
2023-04-30T18:05:40.695Z,6.30
2023-04-30T18:08:08.597Z,6.10
2023-04-30T18:10:37.232Z,6.10
2023-04-30T18:13:04.819Z,6.10
2023-04-30T18:15:32.286Z,6.20
2023-04-30T18:17:59.755Z,6.10
2023-04-30T18:20:27.818Z,6.40
2023-04-30T18:22:55.142Z,6.10
2023-04-30T18:25:22.965Z,6.20
2023-04-30T18:27:50.467Z,6.10
2023-04-30T18:30:17.996Z,6.20
2023-04-30T18:32:48.279Z,6.10
2023-04-30T18:35:16.126Z,5.90
2023-04-30T18:37:43.406Z,6.00
2023-04-30T18:40:11.054Z,6.00
2023-04-30T18:42:38.797Z,5.90
2023-04-30T18:45:06.950Z,6.00
2023-04-30T18:47:34.236Z,5.90
2023-04-30T18:50:01.608Z,5.80
2023-04-30T18:52:29.140Z,6.20
2023-04-30T18:54:56.708Z,5.90
2023-04-30T18:57:24.343Z,5.80
2023-04-30T18:59:51.631Z,5.70
2023-04-30T19:02:19.197Z,5.60
2023-04-30T19:04:46.558Z,5.60
2023-04-30T19:07:14.637Z,5.70
2023-04-30T19:09:42.111Z,5.50
2023-04-30T19:12:10.524Z,5.50
2023-04-30T19:14:37.982Z,5.70
2023-04-30T19:17:06.114Z,5.50
2023-04-30T19:19:33.640Z,5.40
2023-04-30T19:22:01.539Z,5.40
2023-04-30T19:24:28.999Z,5.50
2023-04-30T19:26:56.737Z,5.20
2023-04-30T19:29:24.837Z,5.20
2023-04-30T19:31:52.855Z,5.20
2023-04-30T19:34:20.548Z,5.20
2023-04-30T19:36:47.861Z,5.20
2023-04-30T19:39:16.247Z,5.20
2023-04-30T19:41:43.763Z,5.30
2023-04-30T19:44:11.797Z,5.10
2023-04-30T19:46:39.358Z,5.20
2023-04-30T19:49:08.341Z,5.20
2023-04-30T19:51:36.060Z,5.40
2023-04-30T19:54:03.863Z,5.40
2023-04-30T19:56:32.196Z,4.90
2023-04-30T19:58:59.605Z,4.90
2023-04-30T20:01:26.924Z,5.40
2023-04-30T20:03:54.797Z,4.90
2023-04-30T20:06:22.954Z,4.90
2023-04-30T20:08:50.408Z,5.30
2023-04-30T20:11:17.871Z,4.80
2023-04-30T20:13:45.234Z,4.70
2023-04-30T20:16:13.000Z,4.70
2023-04-30T20:18:40.550Z,4.80
2023-04-30T20:21:08.659Z,4.80
2023-04-30T20:23:36.987Z,4.60
2023-04-30T20:26:04.690Z,4.60
2023-04-30T20:28:32.075Z,4.50
2023-04-30T20:30:59.474Z,4.60
2023-04-30T20:33:28.935Z,4.50
2023-04-30T20:35:58.071Z,4.40
2023-04-30T20:38:25.603Z,4.50
2023-04-30T20:40:53.085Z,4.70
2023-04-30T20:43:20.367Z,4.30
2023-04-30T20:45:47.956Z,4.40
2023-04-30T20:48:15.475Z,4.40
2023-04-30T20:50:42.977Z,4.60
2023-04-30T20:53:11.723Z,4.30
2023-04-30T20:55:39.190Z,4.30
2023-04-30T20:58:07.960Z,4.40
2023-04-30T21:00:35.559Z,4.90
2023-04-30T21:03:03.213Z,4.40
2023-04-30T21:05:30.780Z,4.20
2023-04-30T21:08:01.974Z,4.30
2023-04-30T21:10:36.474Z,4.40
2023-04-30T21:13:05.814Z,4.10
2023-04-30T21:15:35.671Z,4.50
2023-04-30T21:18:03.215Z,4.80
2023-04-30T21:20:31.757Z,4.10
2023-04-30T21:22:59.912Z,4.40
2023-04-30T21:25:27.730Z,4.20
2023-04-30T21:27:55.649Z,4.40
2023-04-30T21:30:25.836Z,4.10
2023-04-30T21:32:58.807Z,4.00
2023-04-30T21:35:27.918Z,4.00
2023-04-30T21:37:55.945Z,4.00
2023-04-30T21:40:24.802Z,4.60
2023-04-30T21:42:53.148Z,4.00
2023-04-30T21:45:20.691Z,4.00
2023-04-30T21:47:48.715Z,4.00
2023-04-30T21:50:16.652Z,4.90
2023-04-30T21:52:47.089Z,4.00
2023-04-30T21:55:14.647Z,4.30
2023-04-30T21:57:41.971Z,4.00
2023-04-30T22:00:17.221Z,4.30
2023-04-30T22:02:44.831Z,3.90
2023-04-30T22:05:13.243Z,4.20
2023-04-30T22:07:41.387Z,3.90
2023-04-30T22:10:08.985Z,4.20
2023-04-30T22:12:36.687Z,3.90
2023-04-30T22:15:04.932Z,4.60
2023-04-30T22:17:32.820Z,3.90
2023-04-30T22:20:00.571Z,4.00
2023-04-30T22:22:27.966Z,4.00
2023-04-30T22:24:55.350Z,4.80
2023-04-30T22:27:23.261Z,4.40
2023-04-30T22:29:50.688Z,4.20
2023-04-30T22:32:19.608Z,4.40
2023-04-30T22:34:46.939Z,4.50
2023-04-30T22:37:14.283Z,5.10
2023-04-30T22:39:42.311Z,4.00
2023-04-30T22:42:10.076Z,3.20
2023-04-30T22:44:38.219Z,4.00
2023-04-30T22:47:06.229Z,4.80
2023-04-30T22:49:35.307Z,4.10
2023-04-30T22:52:03.093Z,3.20
2023-04-30T22:54:31.060Z,4.10
2023-04-30T22:56:58.544Z,4.00
2023-04-30T22:59:26.127Z,3.80
2023-04-30T23:01:53.601Z,3.90
2023-04-30T23:04:21.176Z,4.00
2023-04-30T23:06:48.609Z,4.10
2023-04-30T23:09:16.351Z,4.00
2023-04-30T23:11:44.959Z,4.00
2023-04-30T23:14:12.423Z,3.80
2023-04-30T23:16:43.081Z,4.00
2023-04-30T23:19:10.792Z,4.00
2023-04-30T23:21:38.628Z,4.00
2023-04-30T23:24:06.321Z,4.00
2023-04-30T23:26:33.692Z,4.40
2023-04-30T23:29:01.386Z,4.00
2023-04-30T23:31:29.237Z,3.90
2023-04-30T23:33:56.721Z,3.80
2023-04-30T23:36:24.180Z,4.10
2023-04-30T23:38:51.587Z,3.60
2023-04-30T23:41:18.943Z,4.60
2023-04-30T23:43:46.398Z,3.60
2023-04-30T23:46:16.109Z,4.00
2023-04-30T23:48:43.871Z,3.90
2023-04-30T23:51:11.677Z,4.20
2023-04-30T23:53:39.615Z,4.40
2023-04-30T23:56:08.670Z,3.90
2023-04-30T23:58:36.146Z,3.40
